sensor_id;sensor_type;location;lat;lon;timestamp;P1;durP1;ratioP1;P2;durP2;ratioP2
70997;SDS011;58663;52.040;4.634;2022-12-24T00:00:21;26.23;;;4.05;;
70997;SDS011;58663;52.040;4.634;2022-12-24T00:02:48;37.72;;;5.55;;
70997;SDS011;58663;52.040;4.634;2022-12-24T00:05:14;30.90;;;4.30;;
70997;SDS011;58663;52.040;4.634;2022-12-24T00:07:39;43.78;;;4.53;;
70997;SDS011;58663;52.040;4.634;2022-12-24T00:10:06;40.42;;;5.40;;
70997;SDS011;58663;52.040;4.634;2022-12-24T00:12:33;31.17;;;4.72;;
70997;SDS011;58663;52.040;4.634;2022-12-24T00:14:59;43.08;;;4.88;;
70997;SDS011;58663;52.040;4.634;2022-12-24T00:17:24;43.88;;;5.57;;
70997;SDS011;58663;52.040;4.634;2022-12-24T00:19:49;28.77;;;4.68;;
70997;SDS011;58663;52.040;4.634;2022-12-24T00:22:15;40.25;;;3.78;;
70997;SDS011;58663;52.040;4.634;2022-12-24T00:24:40;36.10;;;4.63;;
70997;SDS011;58663;52.040;4.634;2022-12-24T00:27:06;39.35;;;5.65;;
70997;SDS011;58663;52.040;4.634;2022-12-24T00:29:32;41.67;;;5.47;;
70997;SDS011;58663;52.040;4.634;2022-12-24T00:31:58;30.85;;;4.00;;
70997;SDS011;58663;52.040;4.634;2022-12-24T00:34:23;38.53;;;5.30;;
70997;SDS011;58663;52.040;4.634;2022-12-24T00:36:49;34.85;;;4.28;;
70997;SDS011;58663;52.040;4.634;2022-12-24T00:39:15;31.45;;;4.25;;
70997;SDS011;58663;52.040;4.634;2022-12-24T00:41:40;26.27;;;3.92;;
70997;SDS011;58663;52.040;4.634;2022-12-24T00:44:06;34.92;;;4.60;;
70997;SDS011;58663;52.040;4.634;2022-12-24T00:46:35;29.88;;;5.07;;
70997;SDS011;58663;52.040;4.634;2022-12-24T00:49:01;26.55;;;4.25;;
70997;SDS011;58663;52.040;4.634;2022-12-24T00:51:28;41.20;;;5.40;;
70997;SDS011;58663;52.040;4.634;2022-12-24T00:53:53;35.22;;;4.15;;
70997;SDS011;58663;52.040;4.634;2022-12-24T00:56:19;25.75;;;3.65;;
70997;SDS011;58663;52.040;4.634;2022-12-24T00:58:44;28.85;;;4.68;;
70997;SDS011;58663;52.040;4.634;2022-12-24T01:01:10;30.05;;;3.95;;
70997;SDS011;58663;52.040;4.634;2022-12-24T01:03:36;37.28;;;4.20;;
70997;SDS011;58663;52.040;4.634;2022-12-24T01:06:05;27.73;;;4.10;;
70997;SDS011;58663;52.040;4.634;2022-12-24T01:08:33;28.90;;;4.60;;
70997;SDS011;58663;52.040;4.634;2022-12-24T01:10:59;35.63;;;4.38;;
70997;SDS011;58663;52.040;4.634;2022-12-24T01:13:25;36.92;;;4.40;;
70997;SDS011;58663;52.040;4.634;2022-12-24T01:15:51;43.67;;;4.97;;
70997;SDS011;58663;52.040;4.634;2022-12-24T01:18:16;32.75;;;6.97;;
70997;SDS011;58663;52.040;4.634;2022-12-24T01:20:42;24.08;;;4.32;;
70997;SDS011;58663;52.040;4.634;2022-12-24T01:23:07;38.97;;;4.10;;
70997;SDS011;58663;52.040;4.634;2022-12-24T01:25:33;25.30;;;4.43;;
70997;SDS011;58663;52.040;4.634;2022-12-24T01:27:58;38.50;;;4.60;;
70997;SDS011;58663;52.040;4.634;2022-12-24T01:30:24;52.10;;;5.25;;
70997;SDS011;58663;52.040;4.634;2022-12-24T01:32:49;44.88;;;4.88;;
70997;SDS011;58663;52.040;4.634;2022-12-24T01:35:15;42.97;;;5.75;;
70997;SDS011;58663;52.040;4.634;2022-12-24T01:37:41;37.15;;;4.72;;
70997;SDS011;58663;52.040;4.634;2022-12-24T01:40:07;32.03;;;4.07;;
70997;SDS011;58663;52.040;4.634;2022-12-24T01:42:52;28.58;;;4.50;;
70997;SDS011;58663;52.040;4.634;2022-12-24T01:45:41;29.88;;;3.53;;
70997;SDS011;58663;52.040;4.634;2022-12-24T01:48:22;38.50;;;3.85;;
70997;SDS011;58663;52.040;4.634;2022-12-24T01:50:49;30.98;;;4.30;;
70997;SDS011;58663;52.040;4.634;2022-12-24T01:53:19;32.42;;;4.25;;
70997;SDS011;58663;52.040;4.634;2022-12-24T01:55:45;23.50;;;3.28;;
70997;SDS011;58663;52.040;4.634;2022-12-24T01:58:11;40.40;;;4.47;;
70997;SDS011;58663;52.040;4.634;2022-12-24T02:00:38;39.08;;;4.13;;
70997;SDS011;58663;52.040;4.634;2022-12-24T02:03:04;26.15;;;3.95;;
70997;SDS011;58663;52.040;4.634;2022-12-24T02:05:30;23.25;;;3.83;;
70997;SDS011;58663;52.040;4.634;2022-12-24T02:07:57;35.10;;;3.97;;
70997;SDS011;58663;52.040;4.634;2022-12-24T02:10:24;30.48;;;3.83;;
70997;SDS011;58663;52.040;4.634;2022-12-24T02:12:49;30.58;;;4.68;;
70997;SDS011;58663;52.040;4.634;2022-12-24T02:15:16;35.13;;;4.35;;
70997;SDS011;58663;52.040;4.634;2022-12-24T02:20:18;21.73;;;3.83;;
70997;SDS011;58663;52.040;4.634;2022-12-24T02:26:02;30.55;;;3.90;;
70997;SDS011;58663;52.040;4.634;2022-12-24T02:31:10;31.25;;;3.80;;
70997;SDS011;58663;52.040;4.634;2022-12-24T02:33:49;30.52;;;4.40;;
70997;SDS011;58663;52.040;4.634;2022-12-24T02:36:20;29.80;;;4.32;;
70997;SDS011;58663;52.040;4.634;2022-12-24T02:41:39;24.35;;;3.72;;
70997;SDS011;58663;52.040;4.634;2022-12-24T02:44:27;31.60;;;3.65;;
70997;SDS011;58663;52.040;4.634;2022-12-24T02:46:55;36.88;;;3.63;;
70997;SDS011;58663;52.040;4.634;2022-12-24T02:49:21;39.58;;;3.40;;
70997;SDS011;58663;52.040;4.634;2022-12-24T02:51:46;24.00;;;4.07;;
70997;SDS011;58663;52.040;4.634;2022-12-24T02:54:12;38.88;;;5.13;;
70997;SDS011;58663;52.040;4.634;2022-12-24T03:02:07;30.60;;;4.40;;
70997;SDS011;58663;52.040;4.634;2022-12-24T03:07:21;30.42;;;4.25;;
70997;SDS011;58663;52.040;4.634;2022-12-24T03:12:35;35.55;;;4.45;;
70997;SDS011;58663;52.040;4.634;2022-12-24T03:15:04;32.00;;;4.75;;
70997;SDS011;58663;52.040;4.634;2022-12-24T03:17:33;41.78;;;4.07;;
70997;SDS011;58663;52.040;4.634;2022-12-24T03:19:59;31.00;;;4.63;;
70997;SDS011;58663;52.040;4.634;2022-12-24T03:22:25;35.28;;;4.93;;
70997;SDS011;58663;52.040;4.634;2022-12-24T03:24:51;25.92;;;4.15;;
70997;SDS011;58663;52.040;4.634;2022-12-24T03:27:16;33.92;;;4.28;;
70997;SDS011;58663;52.040;4.634;2022-12-24T03:29:42;51.50;;;4.93;;
70997;SDS011;58663;52.040;4.634;2022-12-24T03:32:09;38.28;;;4.57;;
70997;SDS011;58663;52.040;4.634;2022-12-24T03:34:34;26.52;;;4.20;;
70997;SDS011;58663;52.040;4.634;2022-12-24T03:36:59;34.63;;;4.88;;
70997;SDS011;58663;52.040;4.634;2022-12-24T03:39:25;46.17;;;4.38;;
70997;SDS011;58663;52.040;4.634;2022-12-24T03:41:50;48.75;;;6.55;;
70997;SDS011;58663;52.040;4.634;2022-12-24T03:44:16;36.38;;;5.18;;
70997;SDS011;58663;52.040;4.634;2022-12-24T03:46:41;39.75;;;4.60;;
70997;SDS011;58663;52.040;4.634;2022-12-24T03:49:06;32.60;;;4.68;;
70997;SDS011;58663;52.040;4.634;2022-12-24T03:51:32;35.35;;;3.95;;
70997;SDS011;58663;52.040;4.634;2022-12-24T03:53:58;39.83;;;5.03;;
70997;SDS011;58663;52.040;4.634;2022-12-24T03:56:23;37.30;;;5.50;;
70997;SDS011;58663;52.040;4.634;2022-12-24T03:58:49;41.80;;;4.13;;
70997;SDS011;58663;52.040;4.634;2022-12-24T04:01:15;32.45;;;4.53;;
70997;SDS011;58663;52.040;4.634;2022-12-24T04:03:41;33.00;;;4.72;;
70997;SDS011;58663;52.040;4.634;2022-12-24T04:06:07;26.55;;;4.45;;
70997;SDS011;58663;52.040;4.634;2022-12-24T04:08:38;48.45;;;4.63;;
70997;SDS011;58663;52.040;4.634;2022-12-24T04:11:04;32.50;;;4.47;;
70997;SDS011;58663;52.040;4.634;2022-12-24T04:13:31;27.50;;;3.17;;
70997;SDS011;58663;52.040;4.634;2022-12-24T04:16:10;45.53;;;5.10;;
70997;SDS011;58663;52.040;4.634;2022-12-24T04:18:37;29.38;;;3.50;;
70997;SDS011;58663;52.040;4.634;2022-12-24T04:21:03;33.97;;;4.05;;
70997;SDS011;58663;52.040;4.634;2022-12-24T04:23:29;42.00;;;4.43;;
70997;SDS011;58663;52.040;4.634;2022-12-24T04:25:57;31.58;;;4.15;;
70997;SDS011;58663;52.040;4.634;2022-12-24T04:28:23;25.45;;;4.13;;
70997;SDS011;58663;52.040;4.634;2022-12-24T04:30:49;32.53;;;3.95;;
70997;SDS011;58663;52.040;4.634;2022-12-24T04:33:14;31.58;;;4.50;;
70997;SDS011;58663;52.040;4.634;2022-12-24T04:35:40;26.63;;;4.05;;
70997;SDS011;58663;52.040;4.634;2022-12-24T04:38:06;37.72;;;3.65;;
70997;SDS011;58663;52.040;4.634;2022-12-24T04:40:32;40.25;;;4.78;;
70997;SDS011;58663;52.040;4.634;2022-12-24T04:42:58;33.45;;;3.80;;
70997;SDS011;58663;52.040;4.634;2022-12-24T04:45:23;33.58;;;4.07;;
70997;SDS011;58663;52.040;4.634;2022-12-24T04:47:48;28.45;;;4.97;;
70997;SDS011;58663;52.040;4.634;2022-12-24T04:50:14;36.63;;;4.13;;
70997;SDS011;58663;52.040;4.634;2022-12-24T04:52:39;30.05;;;4.53;;
70997;SDS011;58663;52.040;4.634;2022-12-24T04:55:05;26.33;;;3.40;;
70997;SDS011;58663;52.040;4.634;2022-12-24T04:57:31;38.97;;;5.00;;
70997;SDS011;58663;52.040;4.634;2022-12-24T04:59:57;35.33;;;4.05;;
70997;SDS011;58663;52.040;4.634;2022-12-24T05:02:23;32.28;;;3.70;;
70997;SDS011;58663;52.040;4.634;2022-12-24T05:04:49;46.88;;;4.28;;
70997;SDS011;58663;52.040;4.634;2022-12-24T05:07:14;33.83;;;4.38;;
70997;SDS011;58663;52.040;4.634;2022-12-24T05:09:40;38.08;;;4.55;;
70997;SDS011;58663;52.040;4.634;2022-12-24T05:12:05;42.63;;;5.00;;
70997;SDS011;58663;52.040;4.634;2022-12-24T05:14:31;35.25;;;5.45;;
70997;SDS011;58663;52.040;4.634;2022-12-24T05:16:56;46.53;;;4.80;;
70997;SDS011;58663;52.040;4.634;2022-12-24T05:19:22;44.08;;;4.25;;
70997;SDS011;58663;52.040;4.634;2022-12-24T05:21:47;34.88;;;4.60;;
70997;SDS011;58663;52.040;4.634;2022-12-24T05:24:32;35.58;;;5.10;;
70997;SDS011;58663;52.040;4.634;2022-12-24T05:27:16;43.97;;;4.50;;
70997;SDS011;58663;52.040;4.634;2022-12-24T05:29:42;40.42;;;4.68;;
70997;SDS011;58663;52.040;4.634;2022-12-24T05:32:07;40.30;;;4.82;;
70997;SDS011;58663;52.040;4.634;2022-12-24T05:34:33;38.40;;;4.53;;
70997;SDS011;58663;52.040;4.634;2022-12-24T05:36:59;46.78;;;5.00;;
70997;SDS011;58663;52.040;4.634;2022-12-24T05:39:24;33.08;;;5.00;;
70997;SDS011;58663;52.040;4.634;2022-12-24T05:41:49;33.20;;;4.38;;
70997;SDS011;58663;52.040;4.634;2022-12-24T05:44:15;49.63;;;5.15;;
70997;SDS011;58663;52.040;4.634;2022-12-24T05:46:41;44.17;;;5.15;;
70997;SDS011;58663;52.040;4.634;2022-12-24T05:49:07;48.20;;;5.55;;
70997;SDS011;58663;52.040;4.634;2022-12-24T05:51:33;40.78;;;5.95;;
70997;SDS011;58663;52.040;4.634;2022-12-24T05:53:58;42.38;;;4.78;;
70997;SDS011;58663;52.040;4.634;2022-12-24T05:56:24;44.22;;;4.75;;
70997;SDS011;58663;52.040;4.634;2022-12-24T05:58:50;41.55;;;5.63;;
70997;SDS011;58663;52.040;4.634;2022-12-24T06:01:16;43.97;;;5.07;;
70997;SDS011;58663;52.040;4.634;2022-12-24T06:03:42;51.83;;;5.28;;
70997;SDS011;58663;52.040;4.634;2022-12-24T06:06:09;42.67;;;4.97;;
70997;SDS011;58663;52.040;4.634;2022-12-24T06:08:36;38.55;;;4.97;;
70997;SDS011;58663;52.040;4.634;2022-12-24T06:11:04;49.95;;;5.47;;
70997;SDS011;58663;52.040;4.634;2022-12-24T06:13:31;46.80;;;4.57;;
70997;SDS011;58663;52.040;4.634;2022-12-24T06:15:57;45.88;;;4.63;;
70997;SDS011;58663;52.040;4.634;2022-12-24T06:18:24;56.30;;;5.63;;
70997;SDS011;58663;52.040;4.634;2022-12-24T06:20:53;53.85;;;5.97;;
70997;SDS011;58663;52.040;4.634;2022-12-24T06:23:20;44.50;;;6.25;;
70997;SDS011;58663;52.040;4.634;2022-12-24T06:25:46;53.72;;;6.28;;
70997;SDS011;58663;52.040;4.634;2022-12-24T06:28:12;61.38;;;6.30;;
70997;SDS011;58663;52.040;4.634;2022-12-24T06:30:37;50.25;;;6.18;;
70997;SDS011;58663;52.040;4.634;2022-12-24T06:33:03;51.05;;;6.38;;
70997;SDS011;58663;52.040;4.634;2022-12-24T06:35:30;46.58;;;6.45;;
70997;SDS011;58663;52.040;4.634;2022-12-24T06:37:55;50.08;;;5.40;;
70997;SDS011;58663;52.040;4.634;2022-12-24T06:40:21;44.08;;;6.28;;
70997;SDS011;58663;52.040;4.634;2022-12-24T06:42:46;34.10;;;4.85;;
70997;SDS011;58663;52.040;4.634;2022-12-24T06:45:12;39.05;;;6.75;;
70997;SDS011;58663;52.040;4.634;2022-12-24T06:47:37;53.38;;;6.22;;
70997;SDS011;58663;52.040;4.634;2022-12-24T06:50:03;57.08;;;5.75;;
70997;SDS011;58663;52.040;4.634;2022-12-24T06:52:28;46.35;;;5.38;;
70997;SDS011;58663;52.040;4.634;2022-12-24T06:54:54;44.78;;;5.88;;
70997;SDS011;58663;52.040;4.634;2022-12-24T06:57:19;45.58;;;5.60;;
70997;SDS011;58663;52.040;4.634;2022-12-24T06:59:45;49.13;;;6.25;;
70997;SDS011;58663;52.040;4.634;2022-12-24T07:02:10;46.47;;;5.85;;
70997;SDS011;58663;52.040;4.634;2022-12-24T07:04:36;38.97;;;5.78;;
70997;SDS011;58663;52.040;4.634;2022-12-24T07:07:01;65.10;;;6.45;;
70997;SDS011;58663;52.040;4.634;2022-12-24T07:09:27;41.28;;;6.35;;
70997;SDS011;58663;52.040;4.634;2022-12-24T07:11:52;42.70;;;6.10;;
70997;SDS011;58663;52.040;4.634;2022-12-24T07:14:18;46.50;;;7.68;;
70997;SDS011;58663;52.040;4.634;2022-12-24T07:16:43;41.42;;;4.65;;
70997;SDS011;58663;52.040;4.634;2022-12-24T07:19:09;42.08;;;6.30;;
70997;SDS011;58663;52.040;4.634;2022-12-24T07:21:34;47.97;;;6.32;;
70997;SDS011;58663;52.040;4.634;2022-12-24T07:23:59;47.95;;;5.68;;
70997;SDS011;58663;52.040;4.634;2022-12-24T07:26:25;57.10;;;5.95;;
70997;SDS011;58663;52.040;4.634;2022-12-24T07:28:50;38.95;;;5.63;;
70997;SDS011;58663;52.040;4.634;2022-12-24T07:31:16;47.78;;;7.18;;
70997;SDS011;58663;52.040;4.634;2022-12-24T07:33:41;48.30;;;4.45;;
70997;SDS011;58663;52.040;4.634;2022-12-24T07:36:07;55.67;;;5.47;;
70997;SDS011;58663;52.040;4.634;2022-12-24T07:38:34;43.38;;;5.28;;
70997;SDS011;58663;52.040;4.634;2022-12-24T07:41:00;53.00;;;5.30;;
70997;SDS011;58663;52.040;4.634;2022-12-24T07:43:26;57.20;;;6.20;;
70997;SDS011;58663;52.040;4.634;2022-12-24T07:45:57;49.97;;;5.85;;
70997;SDS011;58663;52.040;4.634;2022-12-24T07:48:23;62.65;;;6.30;;
70997;SDS011;58663;52.040;4.634;2022-12-24T07:50:49;45.63;;;4.95;;
70997;SDS011;58663;52.040;4.634;2022-12-24T07:53:15;44.63;;;5.88;;
70997;SDS011;58663;52.040;4.634;2022-12-24T07:55:41;52.35;;;6.15;;
70997;SDS011;58663;52.040;4.634;2022-12-24T07:58:06;48.75;;;6.10;;
70997;SDS011;58663;52.040;4.634;2022-12-24T08:00:31;44.30;;;5.00;;
70997;SDS011;58663;52.040;4.634;2022-12-24T08:02:57;50.13;;;6.55;;
70997;SDS011;58663;52.040;4.634;2022-12-24T08:05:24;45.75;;;5.22;;
70997;SDS011;58663;52.040;4.634;2022-12-24T08:07:51;49.63;;;6.00;;
70997;SDS011;58663;52.040;4.634;2022-12-24T08:10:16;51.67;;;5.80;;
70997;SDS011;58663;52.040;4.634;2022-12-24T08:12:42;56.75;;;5.85;;
70997;SDS011;58663;52.040;4.634;2022-12-24T08:15:07;33.92;;;4.82;;
70997;SDS011;58663;52.040;4.634;2022-12-24T08:17:33;39.00;;;5.75;;
70997;SDS011;58663;52.040;4.634;2022-12-24T08:19:58;43.72;;;6.00;;
70997;SDS011;58663;52.040;4.634;2022-12-24T08:22:24;48.15;;;5.93;;
70997;SDS011;58663;52.040;4.634;2022-12-24T08:24:49;76.15;;;7.35;;
70997;SDS011;58663;52.040;4.634;2022-12-24T08:27:15;46.85;;;5.32;;
70997;SDS011;58663;52.040;4.634;2022-12-24T08:29:40;45.10;;;5.32;;
70997;SDS011;58663;52.040;4.634;2022-12-24T08:32:06;51.45;;;5.82;;
70997;SDS011;58663;52.040;4.634;2022-12-24T08:34:31;40.90;;;4.60;;
70997;SDS011;58663;52.040;4.634;2022-12-24T08:36:56;69.85;;;6.75;;
70997;SDS011;58663;52.040;4.634;2022-12-24T08:39:22;56.90;;;6.75;;
70997;SDS011;58663;52.040;4.634;2022-12-24T08:41:48;61.90;;;6.88;;
70997;SDS011;58663;52.040;4.634;2022-12-24T08:44:14;44.50;;;5.68;;
70997;SDS011;58663;52.040;4.634;2022-12-24T08:46:39;54.28;;;5.70;;
70997;SDS011;58663;52.040;4.634;2022-12-24T08:49:05;44.60;;;6.30;;
70997;SDS011;58663;52.040;4.634;2022-12-24T08:51:30;66.22;;;7.70;;
70997;SDS011;58663;52.040;4.634;2022-12-24T08:53:56;45.67;;;5.68;;
70997;SDS011;58663;52.040;4.634;2022-12-24T08:56:21;61.60;;;6.35;;
70997;SDS011;58663;52.040;4.634;2022-12-24T08:58:47;59.80;;;5.63;;
70997;SDS011;58663;52.040;4.634;2022-12-24T09:01:14;44.58;;;6.32;;
70997;SDS011;58663;52.040;4.634;2022-12-24T09:03:41;47.72;;;4.90;;
70997;SDS011;58663;52.040;4.634;2022-12-24T09:06:06;55.20;;;7.22;;
70997;SDS011;58663;52.040;4.634;2022-12-24T09:08:33;62.08;;;6.95;;
70997;SDS011;58663;52.040;4.634;2022-12-24T09:11:05;46.75;;;6.28;;
70997;SDS011;58663;52.040;4.634;2022-12-24T09:13:32;41.85;;;5.50;;
70997;SDS011;58663;52.040;4.634;2022-12-24T09:15:57;39.72;;;5.13;;
70997;SDS011;58663;52.040;4.634;2022-12-24T09:18:23;34.05;;;5.07;;
70997;SDS011;58663;52.040;4.634;2022-12-24T09:20:49;37.83;;;5.60;;
70997;SDS011;58663;52.040;4.634;2022-12-24T09:23:14;38.20;;;5.25;;
70997;SDS011;58663;52.040;4.634;2022-12-24T09:25:40;33.30;;;5.10;;
70997;SDS011;58663;52.040;4.634;2022-12-24T09:28:06;61.80;;;6.05;;
70997;SDS011;58663;52.040;4.634;2022-12-24T09:30:32;39.90;;;4.60;;
70997;SDS011;58663;52.040;4.634;2022-12-24T09:32:57;26.80;;;4.38;;
70997;SDS011;58663;52.040;4.634;2022-12-24T09:35:23;25.38;;;4.05;;
70997;SDS011;58663;52.040;4.634;2022-12-24T09:37:48;40.05;;;4.97;;
70997;SDS011;58663;52.040;4.634;2022-12-24T09:40:28;30.95;;;4.68;;
70997;SDS011;58663;52.040;4.634;2022-12-24T09:43:00;46.22;;;4.68;;
70997;SDS011;58663;52.040;4.634;2022-12-24T09:45:32;37.20;;;4.25;;
70997;SDS011;58663;52.040;4.634;2022-12-24T09:48:04;34.35;;;4.63;;
70997;SDS011;58663;52.040;4.634;2022-12-24T09:50:45;28.10;;;4.25;;
70997;SDS011;58663;52.040;4.634;2022-12-24T09:55:45;31.43;;;4.07;;
70997;SDS011;58663;52.040;4.634;2022-12-24T09:58:21;38.77;;;4.60;;
70997;SDS011;58663;52.040;4.634;2022-12-24T10:00:54;34.03;;;5.32;;
70997;SDS011;58663;52.040;4.634;2022-12-24T10:03:20;28.58;;;6.03;;
70997;SDS011;58663;52.040;4.634;2022-12-24T10:28:17;36.08;;;4.65;;
70997;SDS011;58663;52.040;4.634;2022-12-24T10:30:46;27.88;;;6.18;;
70997;SDS011;58663;52.040;4.634;2022-12-24T10:33:21;25.17;;;3.85;;
70997;SDS011;58663;52.040;4.634;2022-12-24T10:35:55;30.05;;;4.88;;
70997;SDS011;58663;52.040;4.634;2022-12-24T10:38:21;28.75;;;4.15;;
70997;SDS011;58663;52.040;4.634;2022-12-24T10:40:47;33.05;;;5.32;;
70997;SDS011;58663;52.040;4.634;2022-12-24T10:43:15;28.92;;;4.32;;
70997;SDS011;58663;52.040;4.634;2022-12-24T10:45:47;28.08;;;4.15;;
70997;SDS011;58663;52.040;4.634;2022-12-24T10:48:16;34.03;;;5.05;;
70997;SDS011;58663;52.040;4.634;2022-12-24T10:51:27;38.20;;;4.43;;
70997;SDS011;58663;52.040;4.634;2022-12-24T10:54:12;24.77;;;3.83;;
70997;SDS011;58663;52.040;4.634;2022-12-24T10:56:40;41.65;;;4.68;;
70997;SDS011;58663;52.040;4.634;2022-12-24T10:59:20;32.63;;;4.30;;
70997;SDS011;58663;52.040;4.634;2022-12-24T11:01:48;24.23;;;3.58;;
70997;SDS011;58663;52.040;4.634;2022-12-24T11:04:24;42.78;;;4.25;;
70997;SDS011;58663;52.040;4.634;2022-12-24T11:06:56;26.55;;;4.45;;
70997;SDS011;58663;52.040;4.634;2022-12-24T11:09:30;35.78;;;3.88;;
70997;SDS011;58663;52.040;4.634;2022-12-24T11:12:02;26.60;;;3.40;;
70997;SDS011;58663;52.040;4.634;2022-12-24T11:14:32;27.10;;;3.67;;
70997;SDS011;58663;52.040;4.634;2022-12-24T11:19:31;23.73;;;3.72;;
70997;SDS011;58663;52.040;4.634;2022-12-24T11:22:03;35.45;;;4.03;;
70997;SDS011;58663;52.040;4.634;2022-12-24T11:24:42;28.27;;;3.67;;
70997;SDS011;58663;52.040;4.634;2022-12-24T11:27:22;29.92;;;4.70;;
70997;SDS011;58663;52.040;4.634;2022-12-24T11:32:44;35.85;;;4.28;;
70997;SDS011;58663;52.040;4.634;2022-12-24T11:35:15;26.08;;;3.40;;
70997;SDS011;58663;52.040;4.634;2022-12-24T11:37:42;27.88;;;4.50;;
70997;SDS011;58663;52.040;4.634;2022-12-24T11:40:17;36.30;;;4.07;;
70997;SDS011;58663;52.040;4.634;2022-12-24T11:42:46;25.63;;;4.60;;
70997;SDS011;58663;52.040;4.634;2022-12-24T11:47:49;32.80;;;4.93;;
70997;SDS011;58663;52.040;4.634;2022-12-24T11:58:29;26.02;;;3.63;;
70997;SDS011;58663;52.040;4.634;2022-12-24T12:03:50;21.45;;;3.78;;
70997;SDS011;58663;52.040;4.634;2022-12-24T12:06:31;24.08;;;3.85;;
70997;SDS011;58663;52.040;4.634;2022-12-24T12:09:04;30.02;;;3.95;;
70997;SDS011;58663;52.040;4.634;2022-12-24T12:11:31;24.98;;;4.07;;
70997;SDS011;58663;52.040;4.634;2022-12-24T12:13:58;24.83;;;3.15;;
70997;SDS011;58663;52.040;4.634;2022-12-24T12:16:29;28.85;;;4.07;;
70997;SDS011;58663;52.040;4.634;2022-12-24T12:19:19;26.42;;;3.35;;
70997;SDS011;58663;52.040;4.634;2022-12-24T12:21:45;25.30;;;4.40;;
70997;SDS011;58663;52.040;4.634;2022-12-24T12:24:15;26.35;;;3.40;;
70997;SDS011;58663;52.040;4.634;2022-12-24T12:26:45;23.23;;;3.15;;
70997;SDS011;58663;52.040;4.634;2022-12-24T12:31:46;25.20;;;2.90;;
70997;SDS011;58663;52.040;4.634;2022-12-24T12:34:15;21.15;;;2.85;;
70997;SDS011;58663;52.040;4.634;2022-12-24T12:39:11;15.98;;;3.08;;
70997;SDS011;58663;52.040;4.634;2022-12-24T12:57:47;34.25;;;4.50;;
70997;SDS011;58663;52.040;4.634;2022-12-24T13:00:15;14.80;;;3.15;;
70997;SDS011;58663;52.040;4.634;2022-12-24T13:15:55;20.23;;;3.92;;
70997;SDS011;58663;52.040;4.634;2022-12-24T13:18:32;24.73;;;4.20;;
70997;SDS011;58663;52.040;4.634;2022-12-24T13:21:19;23.17;;;3.17;;
70997;SDS011;58663;52.040;4.634;2022-12-24T13:23:46;27.00;;;3.22;;
70997;SDS011;58663;52.040;4.634;2022-12-24T13:26:13;23.75;;;3.92;;
70997;SDS011;58663;52.040;4.634;2022-12-24T13:28:39;20.20;;;3.63;;
70997;SDS011;58663;52.040;4.634;2022-12-24T13:36:09;27.35;;;3.22;;
70997;SDS011;58663;52.040;4.634;2022-12-24T13:54:58;16.50;;;3.05;;
70997;SDS011;58663;52.040;4.634;2022-12-24T14:00:38;22.08;;;3.03;;
70997;SDS011;58663;52.040;4.634;2022-12-24T14:03:32;19.05;;;2.78;;
70997;SDS011;58663;52.040;4.634;2022-12-24T14:06:28;19.33;;;2.85;;
70997;SDS011;58663;52.040;4.634;2022-12-24T14:14:26;21.27;;;3.38;;
70997;SDS011;58663;52.040;4.634;2022-12-24T14:17:02;21.92;;;3.47;;
70997;SDS011;58663;52.040;4.634;2022-12-24T14:19:43;22.15;;;3.72;;
70997;SDS011;58663;52.040;4.634;2022-12-24T14:24:49;17.33;;;3.10;;
70997;SDS011;58663;52.040;4.634;2022-12-24T14:27:23;25.08;;;4.22;;
70997;SDS011;58663;52.040;4.634;2022-12-24T14:30:04;28.02;;;3.95;;
70997;SDS011;58663;52.040;4.634;2022-12-24T14:32:34;25.25;;;3.88;;
70997;SDS011;58663;52.040;4.634;2022-12-24T14:35:34;14.75;;;3.20;;
70997;SDS011;58663;52.040;4.634;2022-12-24T14:38:07;25.23;;;3.40;;
70997;SDS011;58663;52.040;4.634;2022-12-24T14:40:42;21.42;;;4.03;;
70997;SDS011;58663;52.040;4.634;2022-12-24T14:46:38;26.17;;;4.53;;
70997;SDS011;58663;52.040;4.634;2022-12-24T14:54:41;23.83;;;4.63;;
70997;SDS011;58663;52.040;4.634;2022-12-24T14:59:42;32.90;;;5.07;;
70997;SDS011;58663;52.040;4.634;2022-12-24T15:02:20;28.27;;;4.70;;
70997;SDS011;58663;52.040;4.634;2022-12-24T15:05:08;32.58;;;4.15;;
70997;SDS011;58663;52.040;4.634;2022-12-24T15:07:34;22.00;;;4.70;;
70997;SDS011;58663;52.040;4.634;2022-12-24T15:10:02;17.15;;;3.85;;
70997;SDS011;58663;52.040;4.634;2022-12-24T15:12:30;26.17;;;4.20;;
70997;SDS011;58663;52.040;4.634;2022-12-24T15:14:55;24.95;;;4.72;;
70997;SDS011;58663;52.040;4.634;2022-12-24T15:17:21;29.25;;;3.88;;
70997;SDS011;58663;52.040;4.634;2022-12-24T15:19:47;21.67;;;3.70;;
70997;SDS011;58663;52.040;4.634;2022-12-24T15:22:20;19.90;;;4.27;;
70997;SDS011;58663;52.040;4.634;2022-12-24T15:24:50;21.55;;;4.13;;
70997;SDS011;58663;52.040;4.634;2022-12-24T15:27:22;33.03;;;4.30;;
70997;SDS011;58663;52.040;4.634;2022-12-24T15:29:54;27.13;;;4.78;;
70997;SDS011;58663;52.040;4.634;2022-12-24T15:32:20;24.50;;;3.75;;
70997;SDS011;58663;52.040;4.634;2022-12-24T15:34:47;28.85;;;5.07;;
70997;SDS011;58663;52.040;4.634;2022-12-24T15:42:41;27.67;;;4.35;;
70997;SDS011;58663;52.040;4.634;2022-12-24T15:47:45;21.38;;;3.90;;
70997;SDS011;58663;52.040;4.634;2022-12-24T15:50:18;37.38;;;4.50;;
70997;SDS011;58663;52.040;4.634;2022-12-24T15:52:49;21.40;;;3.85;;
70997;SDS011;58663;52.040;4.634;2022-12-24T15:55:24;27.13;;;4.40;;
70997;SDS011;58663;52.040;4.634;2022-12-24T15:57:50;24.02;;;4.70;;
70997;SDS011;58663;52.040;4.634;2022-12-24T16:00:22;30.20;;;4.28;;
70997;SDS011;58663;52.040;4.634;2022-12-24T16:02:55;25.50;;;5.65;;
70997;SDS011;58663;52.040;4.634;2022-12-24T16:05:34;27.63;;;4.40;;
70997;SDS011;58663;52.040;4.634;2022-12-24T16:08:02;31.48;;;4.30;;
70997;SDS011;58663;52.040;4.634;2022-12-24T16:10:37;24.33;;;5.10;;
70997;SDS011;58663;52.040;4.634;2022-12-24T16:13:28;24.55;;;5.53;;
70997;SDS011;58663;52.040;4.634;2022-12-24T16:18:45;38.50;;;6.63;;
70997;SDS011;58663;52.040;4.634;2022-12-24T16:21:22;34.33;;;6.30;;
70997;SDS011;58663;52.040;4.634;2022-12-24T16:23:51;45.05;;;6.78;;
70997;SDS011;58663;52.040;4.634;2022-12-24T16:26:18;26.52;;;6.18;;
70997;SDS011;58663;52.040;4.634;2022-12-24T16:28:44;33.40;;;6.18;;
70997;SDS011;58663;52.040;4.634;2022-12-24T16:31:16;34.90;;;7.63;;
70997;SDS011;58663;52.040;4.634;2022-12-24T16:33:44;31.90;;;6.43;;
70997;SDS011;58663;52.040;4.634;2022-12-24T16:36:10;36.60;;;8.13;;
70997;SDS011;58663;52.040;4.634;2022-12-24T16:38:35;24.25;;;6.07;;
70997;SDS011;58663;52.040;4.634;2022-12-24T16:41:21;37.83;;;7.25;;
70997;SDS011;58663;52.040;4.634;2022-12-24T16:43:47;28.45;;;6.90;;
70997;SDS011;58663;52.040;4.634;2022-12-24T16:46:15;40.22;;;6.93;;
70997;SDS011;58663;52.040;4.634;2022-12-24T16:48:41;32.10;;;6.82;;
70997;SDS011;58663;52.040;4.634;2022-12-24T16:51:09;33.58;;;6.63;;
70997;SDS011;58663;52.040;4.634;2022-12-24T16:53:34;22.60;;;7.13;;
70997;SDS011;58663;52.040;4.634;2022-12-24T16:56:00;40.85;;;6.35;;
70997;SDS011;58663;52.040;4.634;2022-12-24T16:58:26;39.50;;;6.88;;
70997;SDS011;58663;52.040;4.634;2022-12-24T17:00:53;35.80;;;7.07;;
70997;SDS011;58663;52.040;4.634;2022-12-24T17:03:19;39.25;;;7.15;;
70997;SDS011;58663;52.040;4.634;2022-12-24T17:05:44;32.17;;;6.78;;
70997;SDS011;58663;52.040;4.634;2022-12-24T17:08:10;33.58;;;6.18;;
70997;SDS011;58663;52.040;4.634;2022-12-24T17:10:36;32.78;;;6.80;;
70997;SDS011;58663;52.040;4.634;2022-12-24T17:13:01;40.40;;;6.90;;
70997;SDS011;58663;52.040;4.634;2022-12-24T17:15:27;37.78;;;7.53;;